Time;durP1;ratioP1;P1;durP2;ratioP2;P2;SDS_P1;SDS_P2;PMS_P1;PMS_P2;Temp;Humidity;BMP_temperature;BMP_pressure;BME280_temperature;BME280_humidity;BME280_pressure;Samples;Min_cycle;Max_cycle;Signal;HPM_P1;HPM_P2
2022/02/03 00:02:50;;;;;;;11.77;3.03;;;22.20;62.30;;;;;;5032474;28;20192;-82
2022/02/03 00:05:29;;;;;;;9.73;2.37;;;22.60;61.50;;;;;;5032326;28;20184;-76
2022/02/03 00:08:11;;;;;;;13.87;2.80;;;22.20;61.80;;;;;;5028406;28;20183;-82
2022/02/03 00:16:42;;;;;;;11.47;3.53;;;22.90;60.30;;;;;;5031636;28;20278;-78
2022/02/03 00:25:22;;;;;;;10.97;2.53;;;23.50;58.90;;;;;;5026522;28;20180;-83
2022/02/03 00:28:04;;;;;;;15.27;3.10;;;24.00;57.20;;;;;;5031790;28;20192;-80
2022/02/03 00:30:46;;;;;;;10.40;2.30;;;23.80;58.20;;;;;;5031636;28;20199;-74
2022/02/03 00:36:03;;;;;;;15.73;2.53;;;23.10;58.70;;;;;;5032497;28;20185;-74
2022/02/03 00:49:49;;;;;;;11.23;2.60;;;23.80;57.00;;;;;;5031026;28;20200;-75
2022/02/03 00:52:17;;;;;;;14.37;2.93;;;23.40;57.80;;;;;;5030374;28;20212;-78
2022/02/03 00:54:45;;;;;;;16.13;3.30;;;23.50;57.40;;;;;;5032621;28;20208;-75
2022/02/03 00:57:21;;;;;;;8.77;2.10;;;23.80;57.10;;;;;;5034000;28;20263;-74
2022/02/03 01:00:02;;;;;;;17.90;2.50;;;24.00;56.70;;;;;;5035074;28;20196;-79
2022/02/03 01:02:32;;;;;;;9.83;2.23;;;23.70;56.60;;;;;;5032668;28;20196;-76
2022/02/03 01:05:03;;;;;;;7.80;2.67;;;23.60;57.00;;;;;;5032597;28;20207;-72
2022/02/03 01:07:34;;;;;;;12.13;2.57;;;23.60;56.20;;;;;;5033667;28;20211;-79
2022/02/03 01:10:15;;;;;;;11.17;2.47;;;23.40;57.40;;;;;;5030986;28;20204;-75
2022/02/03 01:45:48;;;;;;;11.07;2.30;;;24.30;53.60;;;;;;5002381;28;20193;-78
2022/02/03 01:53:21;;;;;;;8.70;2.17;;;24.70;54.10;;;;;;5032188;28;20251;-71
2022/02/03 01:56:05;;;;;;;9.13;2.53;;;24.80;53.00;;;;;;5034325;28;20169;-77
2022/02/03 01:58:47;;;;;;;7.83;2.03;;;24.60;54.60;;;;;;5033877;28;20184;-75
2022/02/03 02:01:29;;;;;;;11.30;2.90;;;24.60;54.40;;;;;;5033382;28;20184;-74
2022/02/03 02:04:17;;;;;;;7.20;1.90;;;24.30;53.70;;;;;;5034099;28;20207;-73
2022/02/03 02:06:59;;;;;;;7.50;2.03;;;24.20;54.50;;;;;;5027938;28;20188;-75
2022/02/03 02:12:59;;;;;;;10.77;2.70;;;24.30;53.80;;;;;;5032458;28;20646;-71
2022/02/03 02:18:49;;;;;;;8.40;2.27;;;24.20;54.70;;;;;;5026865;28;20209;-76
2022/02/03 02:44:33;;;;;;;12.60;2.47;;;24.40;53.40;;;;;;5030048;28;20663;-79
2022/02/03 02:47:02;;;;;;;7.27;2.20;;;24.10;53.10;;;;;;5019147;28;20181;-82
2022/02/03 02:49:56;;;;;;;9.50;2.50;;;24.50;53.00;;;;;;5033036;28;20180;-79
2022/02/03 02:52:38;;;;;;;7.97;2.17;;;24.30;52.70;;;;;;5032413;28;21628;-82
2022/02/03 02:55:52;;;;;;;11.97;2.30;;;24.00;53.10;;;;;;5031821;28;20650;-81
2022/02/03 02:58:43;;;;;;;7.20;2.30;;;24.10;52.90;;;;;;5029769;28;20184;-78
2022/02/03 03:37:14;;;;;;;12.53;2.53;;;25.80;47.50;;;;;;5028784;28;20184;-74
2022/02/03 03:39:49;;;;;;;10.37;2.30;;;24.60;50.50;;;;;;5032116;28;20243;-79
2022/02/03 03:42:28;;;;;;;10.30;2.10;;;24.80;51.30;;;;;;5031057;28;20576;-80
2022/02/03 03:45:01;;;;;;;7.07;2.00;;;25.00;51.00;;;;;;5026521;28;20184;-76
2022/02/03 03:47:32;;;;;;;11.27;2.80;;;24.70;51.40;;;;;;5029843;28;20220;-75
2022/02/03 03:50:18;;;;;;;9.77;2.03;;;24.80;51.20;;;;;;5030524;28;20188;-73
2022/02/03 03:52:55;;;;;;;7.77;2.43;;;24.70;51.20;;;;;;5028907;28;20277;-76
2022/02/03 03:58:24;;;;;;;8.77;1.83;;;24.60;52.50;;;;;;5025678;28;20694;-78
2022/02/03 04:33:45;;;;;;;10.50;2.23;;;23.60;54.40;;;;;;5034646;28;20227;-73
2022/02/03 04:39:19;;;;;;;7.40;1.90;;;23.30;55.20;;;;;;5034046;28;20283;-75
2022/02/03 04:57:17;;;;;;;10.30;2.40;;;23.30;55.00;;;;;;5015734;28;20276;-83
2022/02/03 05:06:24;;;;;;;;;;;;;;;;;;;;;
2022/02/03 05:12:51;;;;;;;9.93;2.50;;;22.70;57.70;;;;;;5034657;28;20185;-75
2022/02/03 05:21:29;;;;;;;8.93;2.47;;;23.00;56.80;;;;;;5032580;28;20185;-81
2022/02/03 05:24:44;;;;;;;8.80;2.13;;;23.30;56.10;;;;;;5034008;28;20195;-77
2022/02/03 05:45:09;;;;;;;15.63;2.53;;;23.30;55.60;;;;;;5033475;28;20199;-78
2022/02/03 05:50:40;;;;;;;10.97;1.87;;;24.80;51.80;;;;;;5032257;28;20188;-75
2022/02/03 05:54:43;;;;;;;11.07;1.90;;;25.20;51.00;;;;;;5026720;28;20556;-74
2022/02/03 06:02:20;;;;;;;9.20;1.83;;;26.50;46.60;;;;;;5031145;28;20266;-82
2022/02/03 06:04:58;;;;;;;8.60;1.70;;;26.10;47.30;;;;;;5027848;28;20200;-79
2022/02/03 06:15:36;;;;;;;13.73;2.27;;;26.50;46.70;;;;;;5026595;28;20184;-77
2022/02/03 06:23:28;;;;;;;7.30;2.03;;;27.00;45.40;;;;;;5028620;28;20189;-83
2022/02/03 06:28:47;;;;;;;6.93;1.50;;;27.00;45.20;;;;;;5030029;28;20287;-76
2022/02/03 06:31:14;;;;;;;10.47;2.37;;;26.00;46.90;;;;;;5031482;28;20232;-80
2022/02/03 06:33:42;;;;;;;7.10;1.80;;;25.30;48.90;;;;;;5031086;28;20212;-80
2022/02/03 06:36:09;;;;;;;6.03;1.50;;;25.50;48.40;;;;;;5032682;28;20176;-80
2022/02/03 06:38:37;;;;;;;13.43;2.30;;;25.80;47.10;;;;;;5029499;28;20191;-77
2022/02/03 06:41:04;;;;;;;6.93;2.33;;;25.20;48.50;;;;;;5032746;28;20308;-78
2022/02/03 06:43:32;;;;;;;6.90;2.03;;;24.80;49.30;;;;;;5031999;28;20270;-73
2022/02/03 06:46:03;;;;;;;11.53;2.00;;;24.50;50.20;;;;;;5030866;28;20180;-78
2022/02/03 06:48:32;;;;;;;7.93;1.57;;;24.00;51.50;;;;;;5032193;28;20180;-77
2022/02/03 06:51:08;;;;;;;8.23;1.80;;;24.30;51.30;;;;;;5030997;28;20181;-78
2022/02/03 06:53:39;;;;;;;12.13;1.70;;;23.90;52.00;;;;;;5028826;28;20212;-73
2022/02/03 06:56:12;;;;;;;9.83;1.80;;;24.40;51.00;;;;;;5031435;28;20191;-74
2022/02/03 06:58:47;;;;;;;5.67;1.63;;;24.30;51.10;;;;;;5029646;28;20192;-73
2022/02/03 07:01:20;;;;;;;9.27;1.80;;;24.00;51.50;;;;;;5030568;28;20183;-74
2022/02/03 07:03:55;;;;;;;7.30;1.87;;;24.20;51.50;;;;;;5030624;28;20588;-77
2022/02/03 07:06:22;;;;;;;6.37;1.90;;;24.20;51.50;;;;;;5030107;28;20184;-78
2022/02/03 07:08:52;;;;;;;9.13;1.87;;;24.00;51.50;;;;;;5030660;28;20184;-73
2022/02/03 07:11:21;;;;;;;5.27;1.60;;;23.40;52.90;;;;;;5043984;28;20230;-75
2022/02/03 07:13:49;;;;;;;7.77;1.90;;;23.20;53.90;;;;;;5028652;28;20305;-75
2022/02/03 07:16:16;;;;;;;7.80;1.80;;;23.00;54.70;;;;;;5031390;28;20184;-71
2022/02/03 07:18:44;;;;;;;9.83;1.90;;;22.80;55.10;;;;;;5030421;28;20184;-72
2022/02/03 07:21:13;;;;;;;7.83;2.17;;;22.80;55.00;;;;;;5031346;28;20243;-73
2022/02/03 07:23:41;;;;;;;11.83;2.73;;;22.90;54.90;;;;;;5027973;28;20616;-77
2022/02/03 07:26:08;;;;;;;15.47;2.77;;;22.80;59.00;;;;;;5031433;28;20267;-75
2022/02/03 07:28:36;;;;;;;13.10;2.63;;;22.50;64.40;;;;;;5028638;28;20193;-75
2022/02/03 07:31:03;;;;;;;21.30;3.93;;;22.10;66.90;;;;;;5031061;28;20196;-75
2022/02/03 07:33:32;;;;;;;13.60;2.60;;;22.20;67.20;;;;;;5030748;28;20350;-76
2022/02/03 07:35:59;;;;;;;13.80;2.70;;;22.30;67.00;;;;;;5031579;28;20271;-78
2022/02/03 07:38:27;;;;;;;15.20;3.07;;;22.20;67.80;;;;;;5031070;28;20331;-77
2022/02/03 07:40:54;;;;;;;13.37;2.53;;;22.00;69.00;;;;;;5031639;28;20230;-79
2022/02/03 07:43:22;;;;;;;12.23;2.40;;;21.90;69.50;;;;;;5030970;28;20549;-78
2022/02/03 07:45:50;;;;;;;12.63;2.67;;;22.00;66.70;;;;;;5031386;28;20180;-77
2022/02/03 07:48:21;;;;;;;8.60;1.97;;;22.00;61.40;;;;;;5030173;28;20276;-82
2022/02/03 07:50:48;;;;;;;14.27;2.27;;;22.10;60.30;;;;;;5031539;28;20636;-81
2022/02/03 07:53:16;;;;;;;18.70;2.30;;;22.10;59.90;;;;;;5030052;28;20223;-82
2022/02/03 07:55:43;;;;;;;13.50;2.60;;;22.00;60.00;;;;;;5031504;28;20188;-80
2022/02/03 07:58:10;;;;;;;8.07;1.97;;;22.00;60.10;;;;;;5030171;28;20199;-74
2022/02/03 08:00:38;;;;;;;9.87;1.73;;;22.10;59.60;;;;;;5030696;28;20183;-78
2022/02/03 08:03:10;;;;;;;13.43;2.40;;;22.10;59.40;;;;;;5025270;28;20250;-77
2022/02/03 08:05:39;;;;;;;9.13;2.10;;;22.10;59.50;;;;;;5024775;28;20643;-75
2022/02/03 08:08:17;;;;;;;13.30;2.97;;;22.10;59.80;;;;;;5028278;28;20758;-76
2022/02/03 08:10:52;;;;;;;9.33;2.40;;;22.00;60.10;;;;;;5026702;28;20287;-74
2022/02/03 08:13:26;;;;;;;12.93;3.03;;;21.90;60.10;;;;;;5029416;28;20319;-76
2022/02/03 08:16:14;;;;;;;11.33;2.73;;;21.90;63.00;;;;;;5030716;28;20183;-76
2022/02/03 08:18:46;;;;;;;17.77;3.67;;;21.70;69.60;;;;;;5024847;28;20183;-75
2022/02/03 08:21:16;;;;;;;23.17;3.57;;;21.30;76.50;;;;;;5030663;28;20199;-78
2022/02/03 08:24:32;;;;;;;18.53;3.47;;;21.10;79.00;;;;;;5026705;28;20234;-78
2022/02/03 08:32:12;;;;;;;15.73;3.03;;;20.70;79.90;;;;;;5028356;28;20539;-76
2022/02/03 08:37:58;;;;;;;21.13;3.97;;;20.50;81.60;;;;;;5030443;28;20192;-74
2022/02/03 08:40:31;;;;;;;16.10;3.00;;;20.50;80.30;;;;;;5027999;28;20216;-76
2022/02/03 08:42:58;;;;;;;17.20;3.10;;;20.50;79.60;;;;;;5030171;28;20196;-75
2022/02/03 08:45:26;;;;;;;12.93;2.63;;;20.50;79.60;;;;;;5045860;28;20664;-74
2022/02/03 08:47:54;;;;;;;8.97;3.20;;;20.50;77.60;;;;;;5029245;28;20176;-75
2022/02/03 08:50:23;;;;;;;11.33;2.73;;;20.50;73.40;;;;;;5031021;28;20195;-74
2022/02/03 08:55:26;;;;;;;16.93;3.27;;;20.50;75.20;;;;;;5030683;28;20223;-73
2022/02/03 09:36:07;;;;;;;9.53;2.40;;;21.10;61.50;;;;;;5034111;28;20181;-77
2022/02/03 09:55:15;;;;;;;15.10;2.90;;;20.80;65.50;;;;;;5032554;28;20235;-75
2022/02/03 09:57:52;;;;;;;14.07;2.77;;;20.80;65.90;;;;;;5029872;28;20173;-76
2022/02/03 10:00:52;;;;;;;19.70;2.70;;;20.80;65.90;;;;;;5033392;28;20219;-84
2022/02/03 10:03:34;;;;;;;20.10;3.40;;;20.80;66.40;;;;;;5033197;28;20188;-77
2022/02/03 10:06:08;;;;;;;14.43;2.50;;;20.80;66.50;;;;;;5032332;28;20196;-72
2022/02/03 10:08:36;;;;;;;14.10;3.20;;;20.80;67.10;;;;;;5033113;28;20685;-77
2022/02/03 10:11:15;;;;;;;17.17;3.37;;;20.80;68.30;;;;;;5033370;28;20674;-78
2022/02/03 10:13:50;;;;;;;15.47;3.40;;;20.80;69.00;;;;;;5030616;28;20294;-82
2022/02/03 10:16:20;;;;;;;14.80;2.90;;;20.70;68.20;;;;;;5031338;28;20180;-76
2022/02/03 10:18:50;;;;;;;14.77;2.63;;;20.70;68.50;;;;;;5033506;28;20184;-76
2022/02/03 10:21:22;;;;;;;10.07;3.23;;;20.80;67.90;;;;;;5032639;28;20181;-77
2022/02/03 10:24:01;;;;;;;13.97;3.13;;;20.80;66.80;;;;;;5031288;28;20555;-80
2022/02/03 10:26:50;;;;;;;17.73;3.10;;;20.90;67.00;;;;;;5032776;28;20180;-81
2022/02/03 10:29:31;;;;;;;12.93;2.70;;;20.80;65.50;;;;;;5026139;28;20177;-82
2022/02/03 10:31:59;;;;;;;14.37;3.07;;;20.80;66.00;;;;;;5032100;28;20187;-81
2022/02/03 10:34:30;;;;;;;18.00;3.13;;;20.70;64.40;;;;;;5031732;28;20194;-78
2022/02/03 10:45:42;;;;;;;11.63;3.00;;;20.60;63.60;;;;;;5031511;28;20276;-83
2022/02/03 10:48:33;;;;;;;17.67;3.00;;;20.70;63.50;;;;;;5030263;28;20185;-76
2022/02/03 10:51:33;;;;;;;13.60;3.33;;;20.70;63.50;;;;;;5029630;28;20180;-76
2022/02/03 10:57:58;;;;;;;21.47;3.40;;;20.60;63.80;;;;;;5031883;28;20518;-85
2022/02/03 11:12:53;;;;;;;21.10;3.57;;;20.30;68.70;;;;;;5031831;28;20207;-81
2022/02/03 11:15:27;;;;;;;18.40;3.97;;;20.20;69.60;;;;;;5027234;28;20235;-78
2022/02/03 11:17:57;;;;;;;24.43;4.60;;;20.00;70.50;;;;;;5030402;28;20199;-85
2022/02/03 11:20:28;;;;;;;25.63;4.17;;;19.90;71.80;;;;;;5030105;28;20180;-78
2022/02/03 11:28:44;;;;;;;21.10;4.47;;;19.80;72.10;;;;;;5030279;28;20259;-76
2022/02/03 11:35:06;;;;;;;21.37;6.13;;;20.00;68.20;;;;;;5031318;28;20295;-79
2022/02/03 11:40:13;;;;;;;17.23;3.70;;;20.30;63.40;;;;;;5030976;28;20188;-76
2022/02/03 11:51:53;;;;;;;20.13;3.63;;;20.40;62.90;;;;;;5015319;28;20202;-77
2022/02/03 11:57:08;;;;;;;17.27;3.67;;;20.40;64.00;;;;;;5031983;28;20280;-74
2022/02/03 12:03:11;;;;;;;13.13;3.70;;;20.30;63.60;;;;;;5030576;28;20270;-75
2022/02/03 12:11:34;;;;;;;19.83;3.43;;;20.30;64.30;;;;;;5028203;28;20188;-76
2022/02/03 12:21:55;;;;;;;15.10;2.80;;;20.40;62.40;;;;;;5031334;28;20180;-76
2022/02/03 12:24:36;;;;;;;16.17;3.17;;;20.40;61.70;;;;;;5031665;28;20214;-77
2022/02/03 12:27:46;;;;;;;19.23;3.30;;;20.40;60.30;;;;;;5031137;28;20192;-77
2022/02/03 12:30:27;;;;;;;9.00;3.20;;;20.40;59.70;;;;;;5026227;28;20585;-83
2022/02/03 12:38:35;;;;;;;17.37;2.97;;;20.30;59.30;;;;;;5031284;28;20203;-86
2022/02/03 12:41:12;;;;;;;17.93;3.47;;;20.30;59.90;;;;;;5031568;28;20228;-82
2022/02/03 12:43:48;;;;;;;12.53;2.60;;;20.30;59.70;;;;;;5031496;28;20230;-80
2022/02/03 12:46:17;;;;;;;14.27;3.10;;;20.30;59.50;;;;;;5028834;28;20290;-79
2022/02/03 12:48:44;;;;;;;18.27;2.70;;;20.20;58.20;;;;;;5030959;28;20188;-79
2022/02/03 12:51:11;;;;;;;16.97;3.47;;;20.20;58.30;;;;;;5034328;28;20981;-78
2022/02/03 12:53:39;;;;;;;13.57;3.17;;;20.20;58.90;;;;;;5032554;28;20220;-82
2022/02/03 12:56:08;;;;;;;12.77;2.30;;;20.10;58.80;;;;;;5035534;28;20586;-77
2022/02/03 12:58:44;;;;;;;10.50;2.50;;;20.20;58.10;;;;;;5035173;28;20176;-80
2022/02/03 13:01:18;;;;;;;17.13;3.03;;;20.20;57.90;;;;;;5033264;28;20699;-79
2022/02/03 13:03:52;;;;;;;13.37;2.90;;;20.20;58.50;;;;;;5034076;28;20195;-85
2022/02/03 13:06:25;;;;;;;18.20;3.40;;;20.20;59.70;;;;;;5035576;28;20283;-77
2022/02/03 13:08:59;;;;;;;15.33;3.00;;;20.20;62.20;;;;;;5034242;28;20180;-75
2022/02/03 13:11:51;;;;;;;20.27;3.57;;;20.10;64.80;;;;;;5035060;28;20223;-79
2022/02/03 13:14:39;;;;;;;19.37;3.37;;;20.00;66.20;;;;;;5032543;28;20225;-78
2022/02/03 13:17:12;;;;;;;20.97;2.83;;;19.80;66.90;;;;;;5033776;28;20180;-75
2022/02/03 13:19:53;;;;;;;15.50;3.37;;;19.70;67.60;;;;;;5028193;28;20547;-75
2022/02/03 13:22:32;;;;;;;19.53;4.10;;;19.60;67.80;;;;;;5032592;28;20180;-79
2022/02/03 13:30:50;;;;;;;13.97;2.70;;;19.30;68.20;;;;;;5033443;28;20195;-79
2022/02/03 13:33:37;;;;;;;19.37;3.23;;;19.30;67.30;;;;;;5032082;28;20702;-77
2022/02/03 13:36:12;;;;;;;16.13;3.13;;;19.30;66.60;;;;;;5033406;28;20670;-76
2022/02/03 13:38:58;;;;;;;15.13;2.60;;;19.30;66.30;;;;;;5032728;28;20655;-77
2022/02/03 13:41:29;;;;;;;11.50;2.83;;;19.30;65.60;;;;;;5033991;28;20232;-78
2022/02/03 13:43:56;;;;;;;13.23;3.20;;;19.30;65.60;;;;;;5034078;28;20597;-74
2022/02/03 13:46:38;;;;;;;17.27;3.00;;;19.20;65.60;;;;;;5034305;28;20196;-76
2022/02/03 13:49:25;;;;;;;13.17;2.93;;;19.10;67.10;;;;;;5032531;28;20655;-76
2022/02/03 13:52:09;;;;;;;17.70;3.77;;;18.90;68.40;;;;;;5031572;28;20181;-76
2022/02/03 14:15:05;;;;;;;13.13;2.97;;;18.30;70.50;;;;;;4957988;28;20215;-74
2022/02/03 14:28:23;;;;;;;15.57;3.77;;;18.30;72.10;;;;;;5032226;28;20283;-79
2022/02/03 14:30:54;;;;;;;11.13;2.77;;;18.20;72.50;;;;;;5033619;28;20256;-77
2022/02/03 14:33:31;;;;;;;14.53;4.00;;;18.20;72.60;;;;;;5032624;28;20232;-80
2022/02/03 14:36:06;;;;;;;17.57;3.13;;;18.20;72.70;;;;;;5032136;28;20286;-78
2022/02/03 14:38:42;;;;;;;14.93;3.17;;;18.20;72.70;;;;;;5031831;28;20755;-74
2022/02/03 14:43:40;;;;;;;15.67;3.20;;;18.00;72.10;;;;;;5033430;28;20200;-80
2022/02/03 14:46:12;;;;;;;13.47;3.10;;;18.00;71.50;;;;;;5033395;28;20191;-78
2022/02/03 14:48:42;;;;;;;12.17;2.47;;;18.10;71.30;;;;;;5031435;28;20283;-81
2022/02/03 14:51:13;;;;;;;17.73;2.70;;;18.00;70.80;;;;;;5032985;28;20224;-84
2022/02/03 14:59:12;;;;;;;16.77;2.60;;;18.00;70.30;;;;;;5031544;28;20195;-81
2022/02/03 15:01:40;;;;;;;18.70;2.67;;;18.00;69.90;;;;;;5031884;28;20215;-79
2022/02/03 15:04:14;;;;;;;11.53;2.30;;;18.00;69.80;;;;;;5031507;28;20184;-75
2022/02/03 15:06:50;;;;;;;12.70;2.57;;;18.10;69.30;;;;;;5033180;28;20183;-76
2022/02/03 15:09:32;;;;;;;11.80;2.30;;;18.20;69.00;;;;;;5031705;28;20191;-82
2022/02/03 15:12:09;;;;;;;10.03;2.60;;;18.20;68.90;;;;;;5033350;28;20197;-82
2022/02/03 15:14:38;;;;;;;14.93;2.43;;;18.20;68.90;;;;;;5032032;28;20685;-80
2022/02/03 15:17:05;;;;;;;14.80;2.30;;;18.30;68.60;;;;;;5029964;28;20176;-80
2022/02/03 15:19:33;;;;;;;16.40;2.43;;;18.30;68.50;;;;;;5032239;28;20177;-79
2022/02/03 15:22:00;;;;;;;19.73;2.67;;;18.30;68.20;;;;;;5029694;28;20180;-79
2022/02/03 15:24:27;;;;;;;10.43;2.83;;;18.30;68.10;;;;;;5032311;28;20263;-75
2022/02/03 15:26:59;;;;;;;17.00;2.37;;;18.30;67.90;;;;;;5032274;28;20191;-74
2022/02/03 15:29:29;;;;;;;17.63;2.83;;;18.30;67.80;;;;;;5045418;28;20544;-76
2022/02/03 15:31:58;;;;;;;14.37;2.43;;;18.30;67.80;;;;;;5032297;28;20275;-76
2022/02/03 15:34:25;;;;;;;13.40;3.13;;;18.30;67.00;;;;;;5031613;28;20212;-83
2022/02/03 15:36:55;;;;;;;13.40;2.30;;;18.30;67.10;;;;;;5032808;28;20212;-78
2022/02/03 15:39:33;;;;;;;10.63;2.60;;;18.30;67.10;;;;;;5032102;28;20187;-82
2022/02/03 15:42:00;;;;;;;13.97;2.53;;;18.20;66.80;;;;;;5031218;28;20200;-78
2022/02/03 15:44:34;;;;;;;10.67;2.07;;;18.20;67.10;;;;;;5030888;28;20190;-74
2022/02/03 15:47:06;;;;;;;10.20;2.60;;;18.20;67.00;;;;;;5031560;28;20173;-75
2022/02/03 16:02:56;;;;;;;14.73;2.87;;;18.00;66.90;;;;;;5030836;28;20643;-79
2022/02/03 16:14:20;;;;;;;12.40;2.47;;;18.10;66.80;;;;;;5027403;28;20254;-80
2022/02/03 16:18:59;;;;;;;10.30;2.40;;;18.50;65.50;;;;;;5031547;28;20187;-83
2022/02/03 16:24:18;;;;;;;11.10;2.33;;;18.30;68.00;;;;;;5031111;28;20271;-77
2022/02/03 16:31:57;;;;;;;17.53;2.60;;;18.10;69.80;;;;;;5035040;28;20191;-83
2022/02/03 16:50:19;;;;;;;15.97;3.23;;;17.00;83.70;;;;;;5023780;28;20262;-77
2022/02/03 16:54:35;;;;;;;16.50;2.93;;;17.10;83.60;;;;;;5035213;28;20224;-74
2022/02/03 16:57:11;;;;;;;18.17;3.30;;;17.10;83.50;;;;;;5031192;28;20191;-75
2022/02/03 16:59:47;;;;;;;22.37;3.70;;;17.20;83.40;;;;;;5033136;28;20191;-75
2022/02/03 17:02:15;;;;;;;19.67;3.10;;;17.20;82.30;;;;;;5034877;28;20183;-77
2022/02/03 17:04:44;;;;;;;14.67;2.97;;;17.20;82.40;;;;;;5035448;28;20184;-76
2022/02/03 17:07:12;;;;;;;16.30;3.03;;;17.30;81.80;;;;;;5034883;28;20266;-76
2022/02/03 17:09:39;;;;;;;18.37;3.40;;;17.30;81.80;;;;;;5035666;28;20249;-76
2022/02/03 17:12:08;;;;;;;13.70;2.83;;;17.30;80.50;;;;;;5034916;28;20270;-75
2022/02/03 17:14:35;;;;;;;13.73;2.30;;;17.40;78.40;;;;;;5032025;28;20208;-76
2022/02/03 17:17:03;;;;;;;12.40;1.93;;;17.50;75.80;;;;;;5031579;28;20238;-75
2022/02/03 17:19:32;;;;;;;11.10;2.40;;;17.60;73.50;;;;;;5034926;28;20190;-75
2022/02/03 17:22:01;;;;;;;10.33;2.37;;;17.70;72.90;;;;;;5033619;28;20547;-80
2022/02/03 17:24:29;;;;;;;9.70;2.30;;;17.60;72.80;;;;;;5034759;28;20181;-75
2022/02/03 17:27:03;;;;;;;10.43;2.00;;;17.70;71.90;;;;;;5034003;28;20262;-75
2022/02/03 17:29:46;;;;;;;6.93;1.90;;;17.70;72.70;;;;;;5033803;28;20180;-75
2022/02/03 18:10:08;;;;;;;8.87;1.90;;;17.40;67.20;;;;;;5033533;28;20251;-80
2022/02/03 18:29:31;;;;;;;8.03;1.63;;;17.00;68.10;;;;;;5029679;28;20200;-81
2022/02/03 18:36:54;;;;;;;10.73;1.57;;;16.90;67.60;;;;;;5033153;28;20176;-77
2022/02/03 18:55:33;;;;;;;8.30;1.40;;;16.40;67.30;;;;;;5032992;28;20269;-76
2022/02/03 18:58:15;;;;;;;8.70;1.70;;;16.40;67.20;;;;;;5032006;28;20713;-80
2022/02/03 19:01:07;;;;;;;6.80;1.53;;;16.40;67.20;;;;;;5032864;28;20182;-83
2022/02/03 19:14:47;;;;;;;11.60;1.60;;;16.40;68.20;;;;;;5031984;28;20288;-78
2022/02/03 19:26:06;;;;;;;10.50;1.87;;;16.50;69.70;;;;;;5031496;28;20167;-80
2022/02/03 20:00:00;;;;;;;6.77;1.70;;;16.70;71.40;;;;;;5030798;28;20195;-80
2022/02/03 20:07:05;;;;;;;9.67;1.93;;;16.80;72.00;;;;;;5032200;28;20185;-83
2022/02/03 20:10:11;;;;;;;10.30;2.27;;;17.00;72.40;;;;;;5031249;28;20179;-79
2022/02/03 20:12:29;;;;;;;11.50;2.00;;;17.00;74.70;;;;;;5030864;28;20658;-80
2022/02/03 20:14:57;;;;;;;11.80;2.33;;;17.30;76.10;;;;;;5031669;28;20646;-79
2022/02/03 20:17:27;;;;;;;12.00;2.67;;;17.30;77.40;;;;;;5031751;28;20194;-82
2022/02/03 20:19:55;;;;;;;10.37;2.17;;;17.50;77.80;;;;;;5031367;28;20645;-82
2022/02/03 20:22:28;;;;;;;15.77;2.30;;;17.60;77.70;;;;;;5031546;28;20195;-84
2022/02/03 20:24:56;;;;;;;10.33;2.23;;;17.60;77.80;;;;;;5028590;28;20197;-81
2022/02/03 20:27:23;;;;;;;14.53;3.57;;;17.70;77.50;;;;;;5029676;28;20233;-81
2022/02/03 20:29:51;;;;;;;9.60;2.10;;;17.70;77.80;;;;;;5027132;28;20184;-78
2022/02/03 20:32:18;;;;;;;12.37;2.20;;;17.70;78.10;;;;;;5029765;28;20627;-80
2022/02/03 20:34:46;;;;;;;10.07;2.17;;;17.60;78.70;;;;;;5030342;28;20195;-81
2022/02/03 20:37:15;;;;;;;19.27;2.67;;;17.70;78.90;;;;;;5030962;28;20420;-79
2022/02/03 20:39:43;;;;;;;18.47;2.67;;;17.80;78.60;;;;;;5030548;28;20198;-80
2022/02/03 20:42:16;;;;;;;12.50;2.53;;;17.80;78.40;;;;;;5031172;28;20180;-79
2022/02/03 20:44:48;;;;;;;10.30;1.70;;;17.90;78.40;;;;;;5031336;28;20269;-82
2022/02/03 20:47:16;;;;;;;11.33;2.23;;;17.90;78.80;;;;;;5030785;28;20176;-83
2022/02/03 20:49:44;;;;;;;14.53;2.17;;;17.90;78.90;;;;;;5029365;28;20788;-83
2022/02/03 20:52:11;;;;;;;12.93;3.23;;;17.80;79.30;;;;;;5031048;28;20184;-80
2022/02/03 20:54:39;;;;;;;15.17;2.77;;;17.80;79.40;;;;;;5031720;28;20251;-79
2022/02/03 20:57:07;;;;;;;13.83;2.50;;;17.90;79.50;;;;;;5025920;28;20623;-79
2022/02/03 20:59:57;;;;;;;10.63;2.10;;;18.00;79.50;;;;;;5029238;28;20192;-76
2022/02/03 21:02:30;;;;;;;19.97;3.13;;;18.00;79.50;;;;;;5030742;28;20187;-75
2022/02/03 21:05:06;;;;;;;12.70;2.77;;;18.00;79.80;;;;;;5030910;28;20184;-76
2022/02/03 21:07:34;;;;;;;19.00;2.63;;;18.10;80.00;;;;;;5027073;28;20176;-80
2022/02/03 21:10:06;;;;;;;20.77;3.07;;;18.20;79.80;;;;;;5031255;28;20267;-76
2022/02/03 21:12:34;;;;;;;19.63;3.03;;;18.30;79.30;;;;;;5034269;28;20181;-79
2022/02/03 21:15:04;;;;;;;15.37;1.93;;;18.40;78.30;;;;;;5035608;28;20199;-76
2022/02/03 21:17:32;;;;;;;8.37;2.10;;;18.40;77.50;;;;;;5031635;28;20181;-77
2022/02/03 21:20:16;;;;;;;9.93;1.80;;;18.50;77.60;;;;;;5034912;28;20249;-78
2022/02/03 21:22:44;;;;;;;11.50;2.53;;;18.40;77.00;;;;;;5031703;28;20271;-82
2022/02/03 21:25:36;;;;;;;15.17;2.10;;;18.30;77.50;;;;;;5034972;28;20594;-76
2022/02/03 21:28:12;;;;;;;17.10;2.40;;;18.30;77.70;;;;;;5034218;28;20192;-79
2022/02/03 21:30:41;;;;;;;13.80;3.10;;;18.20;80.30;;;;;;5033458;28;20184;-80
2022/02/03 21:33:13;;;;;;;12.90;2.97;;;17.90;82.60;;;;;;5033304;28;20241;-81
2022/02/03 21:35:44;;;;;;;21.10;2.70;;;17.80;83.20;;;;;;5031830;28;20187;-81
2022/02/03 21:38:11;;;;;;;14.30;2.33;;;17.80;83.90;;;;;;5030733;28;20203;-78
2022/02/03 21:40:39;;;;;;;15.00;3.03;;;17.80;82.90;;;;;;5034694;28;20223;-80
2022/02/03 21:43:06;;;;;;;17.90;3.10;;;17.80;84.00;;;;;;5032598;28;20176;-76
2022/02/03 21:45:34;;;;;;;12.33;2.67;;;17.80;84.50;;;;;;5034560;28;20275;-77
2022/02/03 21:48:02;;;;;;;12.90;2.50;;;17.90;83.40;;;;;;5034068;28;20650;-78
2022/02/03 21:50:34;;;;;;;10.70;2.43;;;18.10;82.20;;;;;;5026574;28;20635;-73
2022/02/03 21:53:07;;;;;;;17.30;3.13;;;18.30;81.80;;;;;;5033346;28;20223;-76
2022/02/03 21:55:36;;;;;;;10.10;2.37;;;18.20;81.10;;;;;;5029825;28;20203;-72
2022/02/03 21:58:03;;;;;;;11.47;2.30;;;18.20;80.40;;;;;;5033082;28;20524;-73
2022/02/03 22:00:31;;;;;;;9.67;2.33;;;18.20;80.40;;;;;;5024954;28;20180;-74
2022/02/03 22:02:59;;;;;;;10.03;2.50;;;18.20;80.00;;;;;;5032501;28;20644;-73
2022/02/03 22:05:28;;;;;;;8.40;2.63;;;18.20;80.20;;;;;;5033226;28;20183;-72
2022/02/03 22:07:56;;;;;;;11.40;1.90;;;18.40;79.50;;;;;;5032856;28;20191;-77
2022/02/03 22:10:23;;;;;;;8.63;2.07;;;18.70;78.70;;;;;;5034074;28;20620;-76
2022/02/03 22:12:51;;;;;;;9.40;1.93;;;19.00;78.00;;;;;;5033212;28;20234;-75
2022/02/03 22:15:20;;;;;;;8.43;2.13;;;19.20;77.00;;;;;;5032391;28;20189;-75
2022/02/03 22:17:49;;;;;;;7.57;2.10;;;19.30;76.30;;;;;;5032240;28;20271;-74
2022/02/03 22:20:44;;;;;;;7.10;1.57;;;19.30;76.00;;;;;;5031760;28;20181;-74
2022/02/03 22:44:36;;;;;;;11.40;1.93;;;19.80;74.00;;;;;;5032279;28;20196;-76
2022/02/03 22:49:46;;;;;;;7.30;2.00;;;19.80;73.00;;;;;;5030297;28;20189;-75
2022/02/03 22:52:16;;;;;;;11.20;2.27;;;19.60;75.70;;;;;;5032504;28;20234;-78
2022/02/03 22:54:44;;;;;;;9.80;1.97;;;19.60;77.60;;;;;;5032429;28;20204;-79
2022/02/03 22:57:11;;;;;;;7.33;1.63;;;19.60;77.60;;;;;;5030924;28;20179;-78
2022/02/03 23:02:42;;;;;;;6.57;2.07;;;19.50;79.60;;;;;;4966900;28;20237;-78
2022/02/03 23:05:17;;;;;;;7.70;1.90;;;19.50;79.80;;;;;;5019867;28;20199;-79
2022/02/03 23:08:15;;;;;;;9.17;2.10;;;20.10;79.20;;;;;;5031661;28;20187;-77
2022/02/03 23:11:02;;;;;;;8.77;1.60;;;20.20;78.40;;;;;;5031211;28;20227;-77
2022/02/03 23:19:02;;;;;;;7.00;1.30;;;19.80;75.90;;;;;;5029918;28;20184;-81
2022/02/03 23:23:59;;;;;;;15.37;2.27;;;20.00;75.40;;;;;;5032259;28;20180;-76
2022/02/03 23:26:28;;;;;;;11.20;2.20;;;20.00;74.80;;;;;;5030976;28;21080;-75
2022/02/03 23:29:01;;;;;;;8.33;2.03;;;20.00;75.00;;;;;;5029223;28;20181;-77
2022/02/03 23:31:33;;;;;;;9.50;1.90;;;20.10;73.70;;;;;;5031414;28;20204;-76
2022/02/03 23:34:01;;;;;;;12.83;2.53;;;20.30;71.60;;;;;;5030747;28;20690;-76
2022/02/03 23:36:28;;;;;;;9.93;1.97;;;20.50;71.40;;;;;;5028920;28;20230;-75
2022/02/03 23:39:24;;;;;;;8.33;1.93;;;21.10;70.20;;;;;;5029136;28;20187;-75
2022/02/03 23:44:44;;;;;;;12.00;2.00;;;22.10;67.00;;;;;;5029317;28;20199;-84
2022/02/03 23:48:50;;;;;;;9.50;2.00;;;22.30;65.20;;;;;;5030152;28;20552;-77
